KDLF/DLF METAR and TAF weather

Enter ICAO airport designator
Station Type Date Time Source
KDLF METAR 2019/07/17 19:08 UTC NOAA

KDLF 171908Z AUTO 14012G18KT 10SM FEW045 SCT200 34/22 A2997 RMK AO2 DZB02E08 SLP134 $


Station Type Date Time Source
KDLF Decoded METAR 2019/07/17 19:08 UTC NOAA

Laughlin, Laughlin Air Force Base Auxiliary Airfield, TX, United States (KDLF) 29-07-00N 100-28-00W 294M
Jul 17, 2019 - 03:08 PM EDT / 2019.07.17 1908 UTC
Wind: from the SE (140 degrees) at 14 MPH (12 KT) gusting to 21 MPH (18 KT):0
Visibility: 10 mile(s):0
Sky conditions: partly cloudy
Temperature: 93 F (34 C)
Heat index: 100.0 F (37.8 C):1
Dew Point: 71 F (22 C)
Relative Humidity: 49%
Pressure (altimeter): 29.97 in. Hg (1014 hPa)
ob: KDLF 171908Z AUTO 14012G18KT 10SM FEW045 SCT200 34/22 A2997 RMK AO2 DZB02E08 SLP134
cycle: 19

Station Type Date Time Source
KDLF TAF 2019/07/17 18:03 UTC NOAA

TAF KDLF 171800Z 1718/1824 15012G20KT 9999 SCT040 SCT220 QNH2983INS
BECMG 1802/1803 13009KT 9999 FEW060 FEW250 QNH2985INS
BECMG 1811/1812 13012KT 9999 BKN015 BKN250 QNH2994INS
BECMG 1817/1818 14012G20KT 9999 SCT030 SCT250 QNH2985INS TX38/1722Z TN24/1812Z

Example: see airport list